createdAt,value
2022-10-28T00:06:59.938Z,85.02
2022-10-28T00:17:06.167Z,84.96
2022-10-28T00:27:13.521Z,85.10
2022-10-28T00:37:18.894Z,85.28
2022-10-28T00:47:27.180Z,84.95
2022-10-28T00:57:33.241Z,84.93
2022-10-28T01:07:39.680Z,84.83
2022-10-28T01:17:45.942Z,84.56
2022-10-28T01:27:52.012Z,84.84
2022-10-28T01:37:58.137Z,84.83
2022-10-28T01:48:04.403Z,84.90
2022-10-28T01:58:10.498Z,84.78
2022-10-28T02:08:16.384Z,85.09
2022-10-28T02:18:22.647Z,84.96
2022-10-28T02:28:28.738Z,85.03
2022-10-28T02:38:35.193Z,84.79
2022-10-28T02:48:41.624Z,84.49
2022-10-28T02:58:48.091Z,84.62
2022-10-28T03:08:53.906Z,84.95
2022-10-28T03:18:59.671Z,84.87
2022-10-28T03:29:06.062Z,84.78
2022-10-28T03:39:12.284Z,84.75
2022-10-28T03:49:18.786Z,84.36
2022-10-28T03:59:25.080Z,84.74
2022-10-28T04:09:31.538Z,84.77
2022-10-28T04:19:37.643Z,84.76
2022-10-28T04:29:43.916Z,84.70
2022-10-28T04:39:50.169Z,84.80
2022-10-28T04:49:56.209Z,84.91
2022-10-28T05:00:02.521Z,84.82
2022-10-28T05:10:08.737Z,84.58
2022-10-28T05:20:14.830Z,84.77
2022-10-28T05:30:21.131Z,85.03
2022-10-28T05:40:27.324Z,85.11
2022-10-28T05:50:33.154Z,89.31
2022-10-28T06:00:39.177Z,89.29
2022-10-28T06:10:45.461Z,88.89
2022-10-28T06:20:50.259Z,88.62
2022-10-28T06:30:56.343Z,89.80
2022-10-28T06:41:02.907Z,88.16
2022-10-28T06:51:10.300Z,84.96
2022-10-28T07:01:16.278Z,84.25
2022-10-28T07:11:21.978Z,84.87
2022-10-28T07:21:27.778Z,86.61
2022-10-28T07:31:33.606Z,85.39
2022-10-28T07:41:39.745Z,84.00
2022-10-28T07:51:45.511Z,83.04
2022-10-28T08:01:51.297Z,87.44
2022-10-28T08:11:57.190Z,86.33
2022-10-28T08:22:02.913Z,87.05
2022-10-28T08:32:08.515Z,86.20
2022-10-28T08:42:14.149Z,85.59
2022-10-28T08:52:19.769Z,84.54
2022-10-28T09:02:25.419Z,83.97
2022-10-28T09:12:31.235Z,83.86
2022-10-28T09:22:36.679Z,84.06
2022-10-28T09:32:42.711Z,83.35
2022-10-28T09:42:48.771Z,81.72
2022-10-28T09:52:54.510Z,82.09
2022-10-28T10:03:00.365Z,81.36
2022-10-28T10:13:06.322Z,78.89
2022-10-28T10:23:12.124Z,77.45
2022-10-28T10:33:17.500Z,76.88
2022-10-28T10:43:23.316Z,76.34
2022-10-28T10:53:29.569Z,75.02
2022-10-28T11:03:37.346Z,74.88
2022-10-28T11:13:46.036Z,73.44
2022-10-28T11:23:54.259Z,74.34
2022-10-28T11:34:00.061Z,75.47
2022-10-28T11:44:07.984Z,75.80
2022-10-28T11:54:13.258Z,76.63
2022-10-28T12:04:20.983Z,76.74
2022-10-28T12:14:26.158Z,76.69
2022-10-28T12:24:34.205Z,76.68
2022-10-28T12:34:40.472Z,76.09
2022-10-28T12:44:51.351Z,75.39
2022-10-28T12:54:58.912Z,75.43
2022-10-28T13:05:06.859Z,75.39
2022-10-28T13:15:12.662Z,75.21
2022-10-28T13:25:20.645Z,74.80
2022-10-28T13:35:26.365Z,73.65
2022-10-28T13:45:32.645Z,71.34
2022-10-28T13:55:38.718Z,71.55
2022-10-28T14:05:46.123Z,73.00
2022-10-28T14:15:52.275Z,73.05
2022-10-28T14:25:59.716Z,73.57
2022-10-28T14:36:05.163Z,74.63
2022-10-28T14:46:12.215Z,76.73
2022-10-28T14:56:17.922Z,80.64
2022-10-28T15:06:25.452Z,82.43
2022-10-28T15:16:31.431Z,82.75
2022-10-28T15:26:39.223Z,82.45
2022-10-28T15:36:44.612Z,82.48
2022-10-28T15:46:52.985Z,82.29
2022-10-28T15:56:59.430Z,82.53
2022-10-28T16:07:06.886Z,83.00
2022-10-28T16:17:12.349Z,84.39
2022-10-28T16:27:20.235Z,86.15
2022-10-28T16:37:26.175Z,85.97
2022-10-28T16:47:34.194Z,85.17
2022-10-28T16:57:40.083Z,85.71
2022-10-28T17:07:45.716Z,85.20
2022-10-28T17:17:53.251Z,85.40
2022-10-28T17:27:59.225Z,85.25
2022-10-28T17:38:06.384Z,85.81
2022-10-28T17:48:11.906Z,85.93
2022-10-28T17:58:19.505Z,86.09
2022-10-28T18:08:25.160Z,86.55
2022-10-28T18:18:35.013Z,86.59
2022-10-28T18:28:43.486Z,86.51
2022-10-28T18:38:50.933Z,86.66
2022-10-28T18:48:56.790Z,86.99
2022-10-28T18:59:04.278Z,87.15
2022-10-28T19:09:09.875Z,87.58
2022-10-28T19:19:17.599Z,87.54
2022-10-28T19:29:23.325Z,87.79
2022-10-28T19:39:31.184Z,87.98
2022-10-28T19:49:40.656Z,87.98
2022-10-28T19:59:49.479Z,88.82
2022-10-28T20:09:55.178Z,88.62
2022-10-28T20:20:03.055Z,89.30
2022-10-28T20:30:08.708Z,89.67
2022-10-28T20:40:16.526Z,89.30
2022-10-28T20:50:22.039Z,90.08
2022-10-28T21:00:28.314Z,89.88
2022-10-28T21:10:34.633Z,89.79
2022-10-28T21:20:42.251Z,89.63
2022-10-28T21:30:48.114Z,89.55
2022-10-28T21:40:55.574Z,89.71
2022-10-28T21:51:01.736Z,89.71
2022-10-28T22:01:09.170Z,89.58
2022-10-28T22:11:14.923Z,89.84
2022-10-28T22:21:22.565Z,89.68
2022-10-28T22:31:28.284Z,89.77
2022-10-28T22:41:36.225Z,90.04
2022-10-28T22:51:42.016Z,89.78
2022-10-28T23:01:49.700Z,89.89
2022-10-28T23:11:55.329Z,89.95
2022-10-28T23:22:02.997Z,90.07
2022-10-28T23:32:09.358Z,89.89
2022-10-28T23:42:15.401Z,90.05
2022-10-28T23:52:21.117Z,89.45
